Time;durP1;ratioP1;P1;durP2;ratioP2;P2;SDS_P1;SDS_P2;PMS_P1;PMS_P2;Temp;Humidity;BMP_temperature;BMP_pressure;BME280_temperature;BME280_humidity;BME280_pressure;Samples;Min_cycle;Max_cycle;Signal;HPM_P1;HPM_P2
2023/04/11 00:01:28;;;;;;;16.27;4.43;;;14.50;99.90;;;;;;5115032;28;20052;-70
2023/04/11 00:03:55;;;;;;;15.82;4.22;;;14.50;99.90;;;;;;5115073;28;20038;-71
2023/04/11 00:06:23;;;;;;;11.98;4.00;;;14.50;99.90;;;;;;5114978;28;20031;-71
2023/04/11 00:08:48;;;;;;;11.38;3.35;;;14.50;99.90;;;;;;5115076;28;20020;-71
2023/04/11 00:11:14;;;;;;;15.82;3.75;;;14.50;99.90;;;;;;5114859;28;20487;-71
2023/04/11 00:13:41;;;;;;;13.65;3.67;;;14.50;99.90;;;;;;5115019;28;20023;-70
2023/04/11 00:16:08;;;;;;;12.55;3.78;;;14.40;99.90;;;;;;5114700;28;20110;-71
2023/04/11 00:18:36;;;;;;;12.88;3.83;;;14.40;99.90;;;;;;5114530;28;20102;-70
2023/04/11 00:21:09;;;;;;;12.07;3.28;;;14.50;99.90;;;;;;5115062;28;20036;-71
2023/04/11 00:23:34;;;;;;;14.80;4.15;;;14.50;99.90;;;;;;5114448;28;20156;-71
2023/04/11 00:26:01;;;;;;;15.77;4.10;;;14.40;99.90;;;;;;5114937;28;20122;-71
2023/04/11 00:28:27;;;;;;;14.77;4.60;;;14.50;99.90;;;;;;5114644;28;20024;-71
2023/04/11 00:30:53;;;;;;;16.20;4.03;;;14.50;99.90;;;;;;5114285;28;20054;-71
2023/04/11 00:33:18;;;;;;;12.25;3.50;;;14.50;99.90;;;;;;5114270;28;20055;-71
2023/04/11 00:35:44;;;;;;;12.52;3.58;;;14.40;99.90;;;;;;5114512;28;20080;-71
2023/04/11 00:38:10;;;;;;;11.50;3.00;;;14.40;99.90;;;;;;5114355;28;20034;-71
2023/04/11 00:40:35;;;;;;;11.75;3.17;;;14.40;99.90;;;;;;5114258;28;20039;-70
2023/04/11 00:43:01;;;;;;;12.40;3.22;;;14.40;99.90;;;;;;5093945;28;20016;-70
2023/04/11 00:45:27;;;;;;;13.00;3.13;;;14.40;99.90;;;;;;5093749;28;20388;-70
2023/04/11 00:47:53;;;;;;;9.00;2.75;;;14.30;99.90;;;;;;5093818;28;20054;-71
2023/04/11 00:50:21;;;;;;;10.60;2.80;;;14.30;99.90;;;;;;5093630;28;20028;-71
2023/04/11 00:52:48;;;;;;;13.75;2.90;;;14.30;99.90;;;;;;5093653;28;20032;-71
2023/04/11 00:55:14;;;;;;;14.00;3.35;;;14.30;99.90;;;;;;5093764;28;20034;-70
2023/04/11 00:57:41;;;;;;;13.35;2.92;;;14.20;99.90;;;;;;5095268;28;20032;-70
2023/04/11 01:00:10;;;;;;;11.75;3.22;;;14.20;99.90;;;;;;5114247;28;20488;-71
2023/04/11 01:02:41;;;;;;;8.98;2.78;;;14.10;99.90;;;;;;5113893;28;20399;-71
2023/04/11 01:05:09;;;;;;;11.98;3.17;;;14.20;99.90;;;;;;5113961;28;20102;-71
2023/04/11 01:07:36;;;;;;;14.02;3.10;;;14.20;99.90;;;;;;5113871;28;20084;-70
2023/04/11 01:10:04;;;;;;;11.70;3.17;;;14.20;99.90;;;;;;5113754;28;20038;-71
2023/04/11 01:12:31;;;;;;;11.05;3.15;;;14.20;99.90;;;;;;5114172;28;20464;-71
2023/04/11 01:14:57;;;;;;;11.88;2.95;;;14.10;99.90;;;;;;5113582;28;20520;-71
2023/04/11 01:17:24;;;;;;;12.15;2.85;;;14.20;99.90;;;;;;5112971;28;20058;-71
2023/04/11 01:19:51;;;;;;;10.05;3.13;;;14.20;99.90;;;;;;5114015;28;20032;-71
2023/04/11 01:22:21;;;;;;;11.10;2.53;;;14.30;99.90;;;;;;5113533;28;20392;-70
2023/04/11 01:24:47;;;;;;;13.85;3.05;;;14.20;99.90;;;;;;5112914;28;20044;-71
2023/04/11 01:27:13;;;;;;;12.35;3.10;;;14.10;99.90;;;;;;5113418;28;20020;-70
2023/04/11 01:29:39;;;;;;;10.70;2.65;;;14.20;99.90;;;;;;5113225;28;20122;-70
2023/04/11 01:32:05;;;;;;;15.65;3.40;;;14.20;99.90;;;;;;5113017;28;20491;-71
2023/04/11 01:34:32;;;;;;;16.40;3.17;;;14.20;99.90;;;;;;5113352;28;20031;-70
2023/04/11 01:36:58;;;;;;;17.13;3.28;;;14.20;99.90;;;;;;5113075;28;20059;-70
2023/04/11 01:39:24;;;;;;;10.75;3.17;;;14.20;99.90;;;;;;5113251;28;20050;-70
2023/04/11 01:41:51;;;;;;;15.93;3.25;;;14.20;99.90;;;;;;5112979;28;20023;-70
2023/04/11 01:44:18;;;;;;;13.65;3.15;;;14.10;99.90;;;;;;5113328;28;20507;-71
2023/04/11 01:46:45;;;;;;;16.20;3.58;;;14.10;99.90;;;;;;5112771;28;20031;-70
2023/04/11 01:49:14;;;;;;;15.70;4.45;;;14.10;99.90;;;;;;5112936;28;20553;-71
2023/04/11 01:51:40;;;;;;;12.43;3.30;;;14.10;99.90;;;;;;5112915;28;20044;-69
2023/04/11 01:54:06;;;;;;;15.52;3.58;;;14.10;99.90;;;;;;5113336;28;20011;-70
2023/04/11 01:56:32;;;;;;;15.75;3.67;;;14.10;99.90;;;;;;5113037;28;20032;-70
2023/04/11 01:58:58;;;;;;;14.07;3.83;;;14.00;99.90;;;;;;5112749;28;20430;-71
2023/04/11 02:01:24;;;;;;;13.73;3.28;;;14.00;99.90;;;;;;5112391;28;20027;-71
2023/04/11 02:03:50;;;;;;;19.05;4.60;;;14.00;99.90;;;;;;5113049;28;20095;-71
2023/04/11 02:06:16;;;;;;;17.77;3.97;;;13.90;99.90;;;;;;5113175;28;20574;-70
2023/04/11 02:08:42;;;;;;;15.07;3.55;;;14.00;99.90;;;;;;5094846;28;20299;-69
2023/04/11 02:11:08;;;;;;;15.27;3.60;;;14.00;99.90;;;;;;5112634;28;20035;-70
2023/04/11 02:13:34;;;;;;;17.45;3.80;;;13.90;99.90;;;;;;5112616;28;20480;-70
2023/04/11 02:16:14;;;;;;;17.33;3.95;;;13.90;99.90;;;;;;5112377;28;20081;-71
2023/04/11 02:18:41;;;;;;;19.90;3.90;;;13.90;99.90;;;;;;5112928;28;20051;-71
2023/04/11 02:21:07;;;;;;;18.70;4.15;;;13.80;99.90;;;;;;5112255;28;20027;-70
2023/04/11 02:23:33;;;;;;;18.75;4.15;;;13.80;99.90;;;;;;5112908;28;20085;-71
2023/04/11 02:26:00;;;;;;;19.83;4.45;;;13.70;99.90;;;;;;5112242;28;20040;-70
2023/04/11 02:28:26;;;;;;;18.33;4.18;;;13.70;99.90;;;;;;5112607;28;20110;-70
2023/04/11 02:30:52;;;;;;;19.05;4.28;;;13.80;99.90;;;;;;5112234;28;20107;-70
2023/04/11 02:33:18;;;;;;;15.73;3.92;;;13.70;99.90;;;;;;5112930;28;20057;-71
2023/04/11 02:35:45;;;;;;;21.73;4.47;;;13.60;99.90;;;;;;5112444;28;20462;-71
2023/04/11 02:38:10;;;;;;;16.90;4.20;;;13.60;99.90;;;;;;5096158;28;20024;-69
2023/04/11 02:40:36;;;;;;;16.58;4.10;;;13.60;99.90;;;;;;5116545;28;20024;-71
2023/04/11 02:43:02;;;;;;;19.63;4.40;;;13.50;99.90;;;;;;5116475;28;20031;-70
2023/04/11 02:45:27;;;;;;;18.00;4.20;;;13.50;99.90;;;;;;5116567;28;20072;-71
2023/04/11 02:47:53;;;;;;;21.08;4.53;;;13.50;99.90;;;;;;5116627;28;20047;-71
2023/04/11 02:50:19;;;;;;;19.60;4.45;;;13.40;99.90;;;;;;5098159;28;20697;-71
2023/04/11 02:52:46;;;;;;;22.83;5.13;;;13.40;99.90;;;;;;5116748;28;20027;-71
2023/04/11 02:55:11;;;;;;;21.15;4.53;;;13.40;99.90;;;;;;5116342;28;20095;-70
2023/04/11 02:57:38;;;;;;;18.27;4.30;;;13.40;99.90;;;;;;5116012;28;20062;-70
2023/04/11 03:00:06;;;;;;;18.90;4.57;;;13.30;99.90;;;;;;5116379;28;20563;-71
2023/04/11 03:02:32;;;;;;;19.83;4.70;;;13.40;99.90;;;;;;5116140;28;20097;-71
2023/04/11 03:04:57;;;;;;;17.77;3.90;;;13.40;99.90;;;;;;5116540;28;20020;-71
2023/04/11 03:07:23;;;;;;;19.38;4.60;;;13.50;99.90;;;;;;5116180;28;20088;-71
2023/04/11 03:09:49;;;;;;;17.42;4.35;;;13.50;99.90;;;;;;5097777;28;20114;-71
2023/04/11 03:12:15;;;;;;;19.13;4.82;;;13.40;99.90;;;;;;5115752;28;20031;-71
2023/04/11 03:14:40;;;;;;;24.80;5.03;;;13.40;99.90;;;;;;5116045;28;20098;-71
2023/04/11 03:17:06;;;;;;;18.17;4.38;;;13.30;99.90;;;;;;5116067;28;20027;-71
2023/04/11 03:19:32;;;;;;;17.83;4.97;;;13.30;99.90;;;;;;5115871;28;20353;-70
2023/04/11 03:21:59;;;;;;;18.08;4.40;;;13.30;99.90;;;;;;5115981;28;20491;-71
2023/04/11 03:24:25;;;;;;;22.83;4.40;;;13.40;99.90;;;;;;5115889;28;20024;-71
2023/04/11 03:26:51;;;;;;;23.17;5.00;;;13.40;99.90;;;;;;5115314;28;20417;-70
2023/04/11 03:29:16;;;;;;;22.63;5.35;;;13.20;99.90;;;;;;5115880;28;20096;-71
2023/04/11 03:31:42;;;;;;;20.58;5.20;;;13.20;99.90;;;;;;5115593;28;20054;-71
2023/04/11 03:34:07;;;;;;;20.42;4.85;;;13.20;99.90;;;;;;5115706;28;20102;-71
2023/04/11 03:36:33;;;;;;;25.48;5.47;;;13.20;99.90;;;;;;5115488;28;20065;-70
2023/04/11 03:38:59;;;;;;;25.10;5.72;;;13.20;99.90;;;;;;5115447;28;20023;-71
2023/04/11 03:41:24;;;;;;;20.88;4.93;;;13.20;99.90;;;;;;5115564;28;20032;-71
2023/04/11 03:43:50;;;;;;;23.40;5.57;;;13.20;99.90;;;;;;5115450;28;20467;-71
2023/04/11 03:46:16;;;;;;;20.80;5.20;;;13.10;99.90;;;;;;5115500;28;20092;-71
2023/04/11 03:48:41;;;;;;;26.23;6.07;;;13.10;99.90;;;;;;5114956;28;20391;-71
2023/04/11 03:51:07;;;;;;;23.10;5.45;;;13.20;99.90;;;;;;5115211;28;20563;-71
2023/04/11 03:53:33;;;;;;;19.70;4.78;;;13.20;99.90;;;;;;5115628;28;20035;-71
2023/04/11 03:55:58;;;;;;;23.10;5.25;;;13.20;99.90;;;;;;5115082;28;20103;-71
2023/04/11 03:58:25;;;;;;;19.88;5.10;;;13.10;99.90;;;;;;5115132;28;20028;-71
2023/04/11 04:00:50;;;;;;;24.38;5.20;;;13.10;99.90;;;;;;5115502;28;20099;-69
2023/04/11 04:03:16;;;;;;;21.25;4.95;;;13.10;99.90;;;;;;5115149;28;20098;-71
2023/04/11 04:05:42;;;;;;;23.75;5.50;;;13.20;99.90;;;;;;5115187;28;20031;-71
2023/04/11 04:08:07;;;;;;;22.00;6.03;;;13.30;99.90;;;;;;5114942;28;20046;-71
2023/04/11 04:10:33;;;;;;;19.83;5.18;;;13.30;99.90;;;;;;5114490;28;20412;-71
2023/04/11 04:12:58;;;;;;;22.60;5.45;;;13.30;99.90;;;;;;5114810;28;20429;-71
2023/04/11 04:15:24;;;;;;;25.27;5.35;;;13.20;99.90;;;;;;5114817;28;20047;-71
2023/04/11 04:17:50;;;;;;;29.88;5.82;;;13.20;99.90;;;;;;5115161;28;20070;-71
2023/04/11 04:20:16;;;;;;;24.55;5.50;;;13.20;99.90;;;;;;5114805;28;20107;-72
2023/04/11 04:22:46;;;;;;;22.25;4.72;;;13.10;99.90;;;;;;5114695;28;20106;-72
2023/04/11 04:25:14;;;;;;;20.48;5.30;;;13.10;99.90;;;;;;5114145;28;20044;-71
2023/04/11 04:27:43;;;;;;;27.15;6.20;;;13.10;99.90;;;;;;5114494;28;20035;-70
2023/04/11 04:30:14;;;;;;;22.83;5.22;;;13.10;99.90;;;;;;5114846;28;20040;-71
2023/04/11 04:32:42;;;;;;;22.05;5.55;;;13.10;99.90;;;;;;5114556;28;20065;-71
2023/04/11 04:35:08;;;;;;;24.38;5.38;;;13.30;99.90;;;;;;5114515;28;20114;-71
2023/04/11 04:37:38;;;;;;;28.23;5.93;;;13.20;99.90;;;;;;5114275;28;20111;-71
2023/04/11 04:40:08;;;;;;;26.77;5.57;;;13.20;99.90;;;;;;5113880;28;20492;-71
2023/04/11 04:42:35;;;;;;;24.40;5.70;;;13.10;99.90;;;;;;5114504;28;20060;-71
2023/04/11 04:45:01;;;;;;;20.50;5.20;;;13.10;99.90;;;;;;5114520;28;20058;-71
2023/04/11 04:47:32;;;;;;;20.25;4.90;;;13.10;99.90;;;;;;5114177;28;20028;-71
2023/04/11 04:49:58;;;;;;;22.45;5.00;;;13.10;99.90;;;;;;5114210;28;20091;-71
2023/04/11 04:52:26;;;;;;;20.85;5.22;;;13.20;99.90;;;;;;5114074;28;20035;-71
2023/04/11 04:54:56;;;;;;;23.52;6.40;;;13.20;99.90;;;;;;5114128;28;20038;-71
2023/04/11 04:57:26;;;;;;;23.30;5.38;;;13.30;99.90;;;;;;5113994;28;20077;-71
2023/04/11 04:59:53;;;;;;;28.00;6.25;;;13.40;99.90;;;;;;5113095;28;20032;-71
2023/04/11 05:02:20;;;;;;;26.30;6.30;;;13.50;99.90;;;;;;5113712;28;20103;-71
2023/04/11 05:04:47;;;;;;;23.33;6.35;;;13.50;99.90;;;;;;5113949;28;20529;-71
2023/04/11 05:07:13;;;;;;;26.00;5.55;;;13.50;99.90;;;;;;5114088;28;20093;-71
2023/04/11 05:09:39;;;;;;;24.17;5.55;;;13.40;99.90;;;;;;5113244;28;20027;-69
2023/04/11 05:12:05;;;;;;;21.65;5.25;;;13.40;99.90;;;;;;5095772;28;20106;-71
2023/04/11 05:14:31;;;;;;;21.25;5.68;;;13.40;99.90;;;;;;5113688;28;20107;-71
2023/04/11 05:16:56;;;;;;;28.42;6.60;;;13.40;99.90;;;;;;5095807;28;20122;-71
2023/04/11 05:19:22;;;;;;;21.95;5.47;;;13.40;99.90;;;;;;5113627;28;20031;-71
2023/04/11 05:21:48;;;;;;;26.73;5.60;;;13.40;99.90;;;;;;5113500;28;20028;-71
2023/04/11 05:24:13;;;;;;;29.88;5.88;;;13.40;99.90;;;;;;5113209;28;20379;-71
2023/04/11 05:26:39;;;;;;;25.98;6.53;;;13.40;99.90;;;;;;5113306;28;20052;-71
2023/04/11 05:29:05;;;;;;;23.35;5.80;;;13.40;99.90;;;;;;5113470;28;20016;-72
2023/04/11 05:31:31;;;;;;;27.77;5.75;;;13.40;99.90;;;;;;5113270;28;20031;-71
2023/04/11 05:33:57;;;;;;;22.73;5.30;;;13.30;99.90;;;;;;5113423;28;20020;-71
2023/04/11 05:36:24;;;;;;;26.55;5.95;;;13.30;99.90;;;;;;5113120;28;20391;-71
2023/04/11 05:38:49;;;;;;;25.48;5.80;;;13.30;99.90;;;;;;5113252;28;20023;-71
2023/04/11 05:41:15;;;;;;;25.73;6.15;;;13.20;99.90;;;;;;5113269;28;20032;-70
2023/04/11 05:43:41;;;;;;;22.33;5.32;;;13.20;99.90;;;;;;5113272;28;20023;-71
2023/04/11 05:46:08;;;;;;;23.60;5.65;;;13.20;99.90;;;;;;5113044;28;20024;-71
2023/04/11 05:48:34;;;;;;;24.02;5.18;;;13.30;99.90;;;;;;5113212;28;20012;-71
2023/04/11 05:51:00;;;;;;;28.48;5.88;;;13.20;99.90;;;;;;5113054;28;20070;-69
2023/04/11 05:53:26;;;;;;;27.65;5.70;;;13.10;99.90;;;;;;5112624;28;20472;-71
2023/04/11 05:55:52;;;;;;;21.55;5.45;;;13.00;99.90;;;;;;5112989;28;20080;-71
2023/04/11 05:58:17;;;;;;;24.05;5.35;;;13.00;99.90;;;;;;5112794;28;20051;-71
2023/04/11 06:00:44;;;;;;;25.60;5.68;;;13.10;99.90;;;;;;5112784;28;20484;-72
2023/04/11 06:03:10;;;;;;;22.27;5.78;;;13.00;99.90;;;;;;5112677;28;20027;-71
2023/04/11 06:05:36;;;;;;;25.75;6.22;;;13.00;99.90;;;;;;5112437;28;20472;-70
2023/04/11 06:08:04;;;;;;;29.45;6.05;;;12.90;99.90;;;;;;5112575;28;20031;-71
2023/04/11 06:10:30;;;;;;;23.45;5.97;;;12.90;99.90;;;;;;5112694;28;20032;-71
2023/04/11 06:12:56;;;;;;;28.90;6.18;;;12.90;99.90;;;;;;5112517;28;20453;-69
2023/04/11 06:15:23;;;;;;;28.20;7.05;;;12.90;99.90;;;;;;5113053;28;20026;-71
2023/04/11 06:17:48;;;;;;;22.20;5.78;;;12.90;99.90;;;;;;5112742;28;20031;-71
2023/04/11 06:20:15;;;;;;;27.58;6.55;;;12.80;99.90;;;;;;5112391;28;20118;-71
2023/04/11 06:22:41;;;;;;;27.63;6.70;;;12.90;99.90;;;;;;5112371;28;20428;-71
2023/04/11 06:25:08;;;;;;;29.27;6.50;;;12.90;99.90;;;;;;5112666;28;20047;-70
2023/04/11 06:27:34;;;;;;;28.60;7.25;;;12.90;99.90;;;;;;5112550;28;20023;-71
2023/04/11 06:30:00;;;;;;;23.83;7.43;;;12.80;99.90;;;;;;5112050;28;20028;-72
2023/04/11 06:32:26;;;;;;;26.65;7.30;;;12.80;99.90;;;;;;5111770;28;20067;-71
2023/04/11 06:34:52;;;;;;;24.98;7.32;;;12.80;99.90;;;;;;5112088;28;20028;-71
2023/04/11 06:37:18;;;;;;;28.42;7.82;;;12.90;99.90;;;;;;5111674;28;20032;-71
2023/04/11 06:39:44;;;;;;;28.30;8.15;;;12.90;99.90;;;;;;5112431;28;20022;-70
2023/04/11 06:42:09;;;;;;;24.08;7.35;;;12.90;99.90;;;;;;5112054;28;20101;-70
2023/04/11 06:44:35;;;;;;;28.70;6.68;;;13.00;99.90;;;;;;5112210;28;20046;-70
2023/04/11 06:47:01;;;;;;;24.50;7.18;;;13.00;99.90;;;;;;5112262;28;20078;-71
2023/04/11 06:49:27;;;;;;;29.60;8.13;;;13.00;99.90;;;;;;5111927;28;20103;-73
2023/04/11 06:51:54;;;;;;;23.63;6.78;;;13.10;99.90;;;;;;5112166;28;20036;-73
2023/04/11 06:54:21;;;;;;;29.25;8.20;;;13.10;99.90;;;;;;5111744;28;20031;-73
2023/04/11 06:56:49;;;;;;;26.15;7.28;;;13.10;99.90;;;;;;5111973;28;20023;-74
2023/04/11 06:59:15;;;;;;;26.67;7.22;;;13.20;99.90;;;;;;5111859;28;20102;-74
2023/04/11 07:01:41;;;;;;;23.92;7.22;;;13.20;99.90;;;;;;5111974;28;20438;-72
2023/04/11 07:04:07;;;;;;;24.48;6.28;;;13.30;99.90;;;;;;5111827;28;20027;-74
2023/04/11 07:06:37;;;;;;;24.83;6.45;;;13.30;99.90;;;;;;5112680;28;20080;-74
2023/04/11 07:09:05;;;;;;;31.50;6.88;;;13.40;99.90;;;;;;5111990;28;20030;-74
2023/04/11 07:11:32;;;;;;;22.40;7.45;;;13.40;99.90;;;;;;5110907;28;20032;-74
2023/04/11 07:14:01;;;;;;;28.40;7.75;;;13.40;99.90;;;;;;5111919;28;20511;-70
2023/04/11 07:16:27;;;;;;;25.83;6.53;;;13.50;99.90;;;;;;5111002;28;20031;-71
2023/04/11 07:18:54;;;;;;;24.38;6.20;;;13.60;99.90;;;;;;5109987;28;20035;-69
2023/04/11 07:21:20;;;;;;;27.67;6.85;;;13.70;99.90;;;;;;5109857;28;20062;-70
2023/04/11 07:23:45;;;;;;;25.38;7.60;;;13.70;99.90;;;;;;5111782;28;20055;-70
2023/04/11 07:26:13;;;;;;;26.75;6.15;;;13.80;99.90;;;;;;5114499;28;20083;-70
2023/04/11 07:28:39;;;;;;;25.88;5.85;;;13.80;99.90;;;;;;5115641;28;20515;-70
2023/04/11 07:31:10;;;;;;;30.95;6.68;;;13.80;99.90;;;;;;5115568;28;20063;-70
2023/04/11 07:33:36;;;;;;;33.47;7.28;;;13.80;99.90;;;;;;5115599;28;20023;-68
2023/04/11 07:37:37;;;;;;;411.67;36.88;;;13.90;99.90;;;;;;5068658;28;20944;-66
2023/04/11 07:40:09;;;;;;;40.50;7.22;;;14.10;99.90;;;;;;5068534;28;20095;-67
2023/04/11 07:42:35;;;;;;;21.98;5.53;;;14.20;99.90;;;;;;5069575;28;20427;-67
2023/04/11 07:45:00;;;;;;;25.90;5.55;;;14.20;99.90;;;;;;5067946;28;20083;-66
2023/04/11 07:47:26;;;;;;;25.40;6.28;;;14.00;99.90;;;;;;5068907;28;20056;-65
2023/04/11 07:49:52;;;;;;;22.17;5.22;;;14.20;99.90;;;;;;5069191;28;20039;-65
2023/04/11 07:52:17;;;;;;;24.23;6.43;;;14.30;99.90;;;;;;5069153;28;20016;-65
2023/04/11 07:54:43;;;;;;;26.25;6.32;;;14.20;99.90;;;;;;5068868;28;20478;-65
2023/04/11 07:57:09;;;;;;;22.80;5.78;;;14.20;99.90;;;;;;5069147;28;20039;-65
2023/04/11 07:59:34;;;;;;;23.40;6.35;;;14.20;99.90;;;;;;5068854;28;20025;-66
2023/04/11 08:02:01;;;;;;;22.92;5.78;;;14.30;99.90;;;;;;5068998;28;20036;-65
2023/04/11 08:04:32;;;;;;;23.52;5.93;;;14.30;99.90;;;;;;5069069;28;20112;-65
2023/04/11 08:06:58;;;;;;;20.67;5.50;;;14.50;99.90;;;;;;5068421;28;20029;-65
2023/04/11 08:09:26;;;;;;;24.55;5.93;;;14.50;99.90;;;;;;5068856;28;20029;-65
2023/04/11 08:11:52;;;;;;;18.48;5.13;;;14.50;99.90;;;;;;5068862;28;20514;-65
2023/04/11 08:14:18;;;;;;;20.42;5.00;;;14.40;99.90;;;;;;5068534;28;20367;-65
2023/04/11 08:16:44;;;;;;;18.27;4.78;;;14.40;99.90;;;;;;5068750;28;20044;-65
2023/04/11 08:19:10;;;;;;;21.83;5.03;;;14.30;99.90;;;;;;5068501;28;20225;-66
2023/04/11 08:21:36;;;;;;;20.60;4.90;;;14.30;99.90;;;;;;5068957;28;20500;-65
2023/04/11 08:24:02;;;;;;;21.67;5.00;;;14.60;99.90;;;;;;5068456;28;20396;-65
2023/04/11 08:26:28;;;;;;;18.13;4.82;;;14.60;99.90;;;;;;5068527;28;20029;-65
2023/04/11 08:28:54;;;;;;;16.58;4.72;;;14.80;99.90;;;;;;5068649;28;20191;-65
2023/04/11 08:31:20;;;;;;;31.23;5.75;;;14.80;99.90;;;;;;5067795;28;20028;-65
2023/04/11 08:33:45;;;;;;;23.35;5.30;;;14.80;99.90;;;;;;5068378;28;20578;-64
2023/04/11 08:36:11;;;;;;;20.55;5.13;;;14.70;99.90;;;;;;5068029;28;20045;-64
2023/04/11 08:38:38;;;;;;;23.25;4.38;;;14.70;99.90;;;;;;5068587;28;20083;-63
2023/04/11 08:41:04;;;;;;;19.58;5.15;;;14.80;99.90;;;;;;5067695;28;20030;-64
2023/04/11 08:43:40;;;;;;;19.92;4.60;;;14.90;99.90;;;;;;5066995;28;20086;-65
2023/04/11 08:46:06;;;;;;;16.15;4.07;;;14.90;99.90;;;;;;5067313;28;20032;-65
2023/04/11 08:48:33;;;;;;;17.75;4.60;;;15.10;99.90;;;;;;5057453;28;20025;-65
2023/04/11 08:50:58;;;;;;;16.85;4.32;;;15.00;99.90;;;;;;5055110;28;20025;-65
2023/04/11 08:53:25;;;;;;;19.90;4.22;;;15.00;99.90;;;;;;5054775;28;20082;-65
2023/04/11 08:55:51;;;;;;;18.20;4.18;;;15.00;99.90;;;;;;5054732;28;20029;-65
2023/04/11 08:58:18;;;;;;;20.25;4.72;;;15.00;99.90;;;;;;5054574;28;20370;-65
2023/04/11 09:00:44;;;;;;;16.90;4.28;;;15.10;99.90;;;;;;5054720;28;20474;-64
2023/04/11 09:03:11;;;;;;;19.52;4.50;;;15.10;99.90;;;;;;5054667;28;20025;-65
2023/04/11 09:05:39;;;;;;;26.80;4.63;;;15.20;99.90;;;;;;5054582;28;20075;-65
2023/04/11 09:08:07;;;;;;;18.85;4.40;;;15.20;99.90;;;;;;5054735;28;20379;-65
2023/04/11 09:10:33;;;;;;;18.17;4.68;;;15.20;99.90;;;;;;5054584;28;20122;-65
2023/04/11 09:13:01;;;;;;;16.83;4.60;;;15.30;99.90;;;;;;5054356;28;20029;-65
2023/04/11 09:15:29;;;;;;;16.13;4.40;;;15.30;99.90;;;;;;5053961;28;20037;-65
2023/04/11 09:17:56;;;;;;;17.90;4.78;;;15.30;99.90;;;;;;5054650;28;20047;-65
2023/04/11 09:20:29;;;;;;;23.23;5.03;;;15.40;99.90;;;;;;5054330;28;20032;-65
2023/04/11 09:22:57;;;;;;;23.73;4.93;;;15.40;99.90;;;;;;5054218;28;20385;-65
2023/04/11 09:25:23;;;;;;;22.98;5.13;;;15.40;99.90;;;;;;5052632;28;20332;-65
2023/04/11 09:28:05;;;;;;;14.75;4.03;;;15.50;99.90;;;;;;5052928;28;20456;-66
2023/04/11 09:30:31;;;;;;;21.05;4.80;;;15.40;99.90;;;;;;5053048;28;20417;-65
2023/04/11 09:32:57;;;;;;;19.88;4.95;;;15.50;99.90;;;;;;5053157;28;20028;-65
2023/04/11 09:35:24;;;;;;;16.30;4.70;;;15.40;99.90;;;;;;5053330;28;20052;-65
2023/04/11 09:37:52;;;;;;;25.90;5.38;;;15.40;99.90;;;;;;5053663;28;20060;-64
2023/04/11 09:40:21;;;;;;;39.13;5.30;;;15.40;99.90;;;;;;5053881;28;20108;-65
2023/04/11 09:42:48;;;;;;;29.08;5.28;;;15.40;99.90;;;;;;5054098;28;20029;-65
2023/04/11 09:45:22;;;;;;;46.03;9.23;;;15.50;99.90;;;;;;5053767;28;20036;-64
2023/04/11 09:47:49;;;;;;;23.52;5.40;;;15.50;99.90;;;;;;5054010;28;20500;-65
2023/04/11 09:50:16;;;;;;;96.90;11.38;;;15.50;99.90;;;;;;5054116;28;20028;-64
2023/04/11 09:52:43;;;;;;;48.40;8.02;;;15.60;99.90;;;;;;5052400;28;20044;-65
2023/04/11 09:55:11;;;;;;;25.63;4.70;;;15.70;99.90;;;;;;5053714;28;20017;-65
2023/04/11 09:57:44;;;;;;;18.55;4.50;;;15.60;99.90;;;;;;5053323;28;20405;-65
2023/04/11 10:00:29;;;;;;;17.60;4.30;;;15.60;99.90;;;;;;5052229;28;20021;-66
2023/04/11 10:02:55;;;;;;;20.63;4.72;;;15.60;99.90;;;;;;5053532;28;20025;-65
2023/04/11 10:05:26;;;;;;;20.50;4.57;;;15.70;99.90;;;;;;5068945;28;20027;-67
2023/04/11 10:08:00;;;;;;;18.05;4.22;;;15.60;99.90;;;;;;5073200;28;20047;-65
2023/04/11 10:10:26;;;;;;;19.02;4.50;;;15.70;99.90;;;;;;5073167;28;20036;-65
2023/04/11 10:12:53;;;;;;;18.15;4.30;;;15.80;99.90;;;;;;5073477;28;20028;-66
2023/04/11 10:15:20;;;;;;;18.85;4.57;;;15.80;99.90;;;;;;5073303;28;20405;-66
2023/04/11 10:18:07;;;;;;;15.90;4.22;;;15.80;99.90;;;;;;5073116;28;20028;-65
2023/04/11 10:20:48;;;;;;;17.15;3.90;;;15.90;99.90;;;;;;5073194;28;20029;-66
2023/04/11 10:23:15;;;;;;;18.88;3.97;;;15.90;99.90;;;;;;5073126;28;20032;-66
2023/04/11 10:26:10;;;;;;;15.77;4.68;;;16.00;99.90;;;;;;5073048;28;20021;-65
2023/04/11 10:28:37;;;;;;;16.88;4.45;;;16.00;99.90;;;;;;5063631;28;20032;-65
2023/04/11 10:31:05;;;;;;;18.13;4.13;;;16.10;99.90;;;;;;5072932;28;20024;-66
2023/04/11 10:33:32;;;;;;;19.35;4.13;;;16.00;99.90;;;;;;5072905;28;20028;-66
2023/04/11 10:36:04;;;;;;;17.30;4.13;;;16.10;99.90;;;;;;5072711;28;20107;-66
2023/04/11 10:38:49;;;;;;;19.25;4.38;;;16.10;99.90;;;;;;5058859;28;20033;-66
2023/04/11 10:41:30;;;;;;;17.13;4.10;;;16.10;99.90;;;;;;5052437;28;20033;-66
2023/04/11 10:44:17;;;;;;;16.92;4.15;;;16.10;99.90;;;;;;5052603;28;20033;-66
2023/04/11 10:46:50;;;;;;;18.08;3.97;;;16.10;99.90;;;;;;5052805;28;20021;-65
2023/04/11 10:49:31;;;;;;;;;;;16.20;99.90;;;;;;5053167;28;20017;-66
2023/04/11 10:52:21;;;;;;;16.25;3.58;;;16.20;99.90;;;;;;5052609;28;20284;-65
2023/04/11 10:54:48;;;;;;;14.52;4.18;;;16.30;99.90;;;;;;5052943;28;20020;-64
2023/04/11 10:57:14;;;;;;;22.67;4.57;;;16.40;99.90;;;;;;5052056;28;20067;-65
2023/04/11 10:59:48;;;;;;;13.98;3.70;;;16.50;99.90;;;;;;5052259;28;20795;-66
2023/04/11 11:02:15;;;;;;;20.33;4.30;;;16.50;99.90;;;;;;5052381;28;20124;-65
2023/04/11 11:04:41;;;;;;;15.55;4.30;;;16.50;99.90;;;;;;5052266;28;20096;-65
2023/04/11 11:07:11;;;;;;;17.73;3.97;;;16.60;99.90;;;;;;5052496;28;20025;-66
2023/04/11 11:09:37;;;;;;;20.52;4.82;;;16.70;99.90;;;;;;5052198;28;20388;-66
2023/04/11 11:12:16;;;;;;;16.65;4.03;;;16.70;99.90;;;;;;5051819;28;20029;-66
2023/04/11 11:14:43;;;;;;;20.48;4.13;;;16.70;99.90;;;;;;5052384;28;20031;-66
2023/04/11 11:17:14;;;;;;;16.33;4.40;;;16.90;99.90;;;;;;5052211;28;20087;-66
2023/04/11 11:19:46;;;;;;;14.25;4.05;;;17.00;99.90;;;;;;5052478;28;20564;-66
2023/04/11 11:22:24;;;;;;;17.15;4.10;;;17.00;99.90;;;;;;5052280;28;20500;-64
2023/04/11 11:24:50;;;;;;;14.48;3.63;;;17.10;99.90;;;;;;5052050;28;20025;-66
2023/04/11 11:27:23;;;;;;;18.50;3.97;;;17.10;99.90;;;;;;5051870;28;20036;-67
2023/04/11 11:29:49;;;;;;;;;;;17.10;99.90;;;;;;5052365;28;20074;-66
2023/04/11 11:32:28;;;;;;;13.95;4.90;;;17.10;99.90;;;;;;5052057;28;19911;-68
2023/04/11 11:34:54;;;;;;;14.18;4.00;;;17.30;99.90;;;;;;5052216;28;20104;-67
2023/04/11 11:37:20;;;;;;;11.07;3.40;;;17.60;99.90;;;;;;5051438;28;20403;-67
2023/04/11 11:39:47;;;;;;;12.75;3.25;;;17.80;99.90;;;;;;5051673;28;20075;-67
2023/04/11 11:42:13;;;;;;;9.60;2.30;;;17.90;99.90;;;;;;5051707;28;20037;-66
2023/04/11 11:44:39;;;;;;;10.70;2.92;;;17.80;99.90;;;;;;5051981;28;20494;-66
2023/04/11 11:47:16;;;;;;;12.82;3.00;;;17.60;99.90;;;;;;5052227;28;20048;-66
2023/04/11 11:49:54;;;;;;;9.07;2.70;;;17.70;99.90;;;;;;5051766;28;20021;-66
2023/04/11 11:52:42;;;;;;;12.77;2.58;;;17.70;99.90;;;;;;5051748;28;20079;-66
2023/04/11 11:55:28;;;;;;;12.30;2.97;;;18.10;99.90;;;;;;5051529;28;20032;-66
2023/04/11 11:58:00;;;;;;;8.48;2.70;;;17.90;99.90;;;;;;5051821;28;20028;-66
2023/04/11 12:00:27;;;;;;;9.93;2.90;;;18.00;99.90;;;;;;5051813;28;20500;-66
2023/04/11 12:02:54;;;;;;;12.23;3.30;;;18.00;99.90;;;;;;5051827;28;20028;-66
2023/04/11 12:05:23;;;;;;;12.50;2.83;;;18.00;99.90;;;;;;5051757;28;20032;-66
2023/04/11 12:07:57;;;;;;;13.50;3.20;;;18.20;99.90;;;;;;5051658;28;20053;-66
2023/04/11 12:10:23;;;;;;;10.60;2.90;;;18.10;99.90;;;;;;5051304;28;20490;-66
2023/04/11 12:12:49;;;;;;;12.50;3.30;;;18.00;99.90;;;;;;5050771;28;20435;-66
2023/04/11 12:15:21;;;;;;;15.00;3.13;;;18.10;99.90;;;;;;5051796;28;20374;-66
2023/04/11 12:17:51;;;;;;;10.48;2.88;;;18.20;99.90;;;;;;5051594;28;20521;-66
2023/04/11 12:20:25;;;;;;;11.45;3.00;;;18.20;99.90;;;;;;5051977;28;20025;-66
2023/04/11 12:22:51;;;;;;;;;;;18.40;99.90;;;;;;5053071;28;20024;-66
2023/04/11 12:25:16;;;;;;;11.30;3.05;;;18.20;99.90;;;;;;5055132;28;20153;-66
2023/04/11 12:27:44;;;;;;;8.60;2.75;;;18.40;99.90;;;;;;5055365;28;20469;-66
2023/04/11 12:30:12;;;;;;;13.73;3.00;;;18.40;99.90;;;;;;5055599;28;20025;-66
2023/04/11 12:32:37;;;;;;;12.77;3.50;;;18.50;99.90;;;;;;5055044;28;20512;-66
2023/04/11 12:35:05;;;;;;;13.32;3.35;;;18.80;99.90;;;;;;5055523;28;20025;-66
2023/04/11 12:37:31;;;;;;;12.23;3.38;;;18.70;99.90;;;;;;5054477;28;20049;-66
2023/04/11 12:39:57;;;;;;;11.40;3.25;;;18.70;99.90;;;;;;5055146;28;20075;-66
2023/04/11 12:42:23;;;;;;;10.55;3.05;;;18.70;99.90;;;;;;5054935;28;20496;-66